createdAt,value
2022-08-05T00:01:28.603Z,98159.25
2022-08-05T00:03:56.993Z,98166.16
2022-08-05T00:06:32.416Z,98160.34
2022-08-05T00:09:00.422Z,98156.84
2022-08-05T00:11:30.187Z,98161.41
2022-08-05T00:13:57.054Z,98150.63
2022-08-05T00:16:36.199Z,98153.78
2022-08-05T00:19:09.662Z,98154.75
2022-08-05T00:21:36.204Z,98155.16
2022-08-05T00:24:10.561Z,98143.75
2022-08-05T00:26:37.863Z,98149.88
2022-08-05T00:29:04.288Z,98144.00
2022-08-05T00:31:53.719Z,98146.53
2022-08-05T00:34:56.128Z,98142.84
2022-08-05T00:37:10.308Z,98144.16
2022-08-05T00:39:44.003Z,98143.81
2022-08-05T00:42:11.015Z,98140.03
2022-08-05T00:44:57.450Z,98138.00
2022-08-05T00:47:24.064Z,98138.59
2022-08-05T00:49:51.752Z,98136.34
2022-08-05T00:52:18.800Z,98136.25
2022-08-05T00:54:54.970Z,98132.78
2022-08-05T00:57:22.689Z,98127.28
2022-08-05T00:59:51.977Z,98119.13
2022-08-05T01:02:18.354Z,98119.66
2022-08-05T01:04:44.713Z,98121.56
2022-08-05T01:07:17.880Z,98119.47
2022-08-05T01:09:44.569Z,98131.72
2022-08-05T01:12:18.768Z,98123.78
2022-08-05T01:14:48.777Z,98125.84
2022-08-05T01:17:39.954Z,98122.53
2022-08-05T01:20:13.506Z,98125.66
2022-08-05T01:22:51.950Z,98118.19
2022-08-05T01:25:40.199Z,98122.94
2022-08-05T01:28:16.794Z,98120.66
2022-08-05T01:30:53.583Z,98115.56
2022-08-05T01:33:25.191Z,98118.34
2022-08-05T01:35:53.783Z,98115.72
2022-08-05T01:38:27.546Z,98116.59
2022-08-05T01:40:58.639Z,98121.00
2022-08-05T01:43:26.708Z,98116.13
2022-08-05T01:45:56.318Z,98111.22
2022-08-05T01:48:23.814Z,98107.97
2022-08-05T01:50:51.495Z,98113.31
2022-08-05T01:53:55.201Z,98110.34
2022-08-05T01:56:09.233Z,98109.03
2022-08-05T01:58:40.920Z,98109.72
2022-08-05T02:01:13.266Z,98103.84
2022-08-05T02:03:43.777Z,98094.28
2022-08-05T02:06:24.041Z,98096.25
2022-08-05T02:08:58.945Z,98095.38
2022-08-05T02:11:33.178Z,98097.75
2022-08-05T02:14:12.466Z,98089.31
2022-08-05T02:16:44.066Z,98081.56
2022-08-05T02:19:24.340Z,98085.28
2022-08-05T02:22:17.515Z,98082.19
2022-08-05T02:24:53.849Z,98075.59
2022-08-05T02:27:30.206Z,98078.25
2022-08-05T02:30:10.333Z,98066.06
2022-08-05T02:32:38.158Z,98067.50
2022-08-05T02:35:14.073Z,98072.72
2022-08-05T02:37:41.594Z,98059.75
2022-08-05T02:40:09.528Z,98054.72
2022-08-05T02:42:37.636Z,98056.75
2022-08-05T02:45:04.277Z,98054.22
2022-08-05T02:47:58.499Z,98052.09
2022-08-05T02:50:18.701Z,98044.84
2022-08-05T02:52:45.693Z,98042.97
2022-08-05T02:55:12.971Z,98042.72
2022-08-05T02:58:09.763Z,98046.06
2022-08-05T03:00:27.116Z,98054.75
2022-08-05T03:02:53.679Z,98045.38
2022-08-05T03:05:21.718Z,98051.97
2022-08-05T03:08:09.495Z,98048.69
2022-08-05T03:10:36.042Z,98044.41
2022-08-05T03:15:27.872Z,98044.16
2022-08-05T03:17:55.768Z,98044.16
2022-08-05T03:20:22.532Z,98049.09
2022-08-05T03:22:50.738Z,98043.47
2022-08-05T03:25:33.700Z,98043.91
2022-08-05T03:28:06.876Z,98050.41
2022-08-05T03:30:34.975Z,98049.69
2022-08-05T03:33:01.839Z,98048.81
2022-08-05T03:35:28.453Z,98057.47
2022-08-05T03:37:58.603Z,98047.50
2022-08-05T03:40:31.928Z,98041.03
2022-08-05T03:42:59.291Z,98042.03
2022-08-05T03:45:28.967Z,98047.63
2022-08-05T03:47:57.153Z,98050.53
2022-08-05T03:50:25.838Z,98055.28
2022-08-05T03:55:53.224Z,98062.34
2022-08-05T03:56:09.657Z,98059.59
2022-08-05T03:58:37.828Z,98057.72
2022-08-05T04:01:11.078Z,98062.31
2022-08-05T04:03:39.521Z,98048.81
2022-08-05T04:06:06.333Z,98061.59
2022-08-05T04:08:36.708Z,98057.84
2022-08-05T04:11:04.030Z,98051.13
2022-08-05T04:13:51.113Z,98058.16
2022-08-05T04:16:24.295Z,98060.91
2022-08-05T04:18:54.427Z,98064.50
2022-08-05T04:22:05.687Z,98061.09
2022-08-05T04:24:08.871Z,98064.81
2022-08-05T04:26:35.669Z,98069.88
2022-08-05T04:29:07.457Z,98061.97
2022-08-05T04:31:38.774Z,98072.47
2022-08-05T04:34:31.756Z,98064.66
2022-08-05T04:36:52.229Z,98072.16
2022-08-05T04:39:19.009Z,98077.34
2022-08-05T04:41:45.812Z,98074.41
2022-08-05T04:44:14.464Z,98082.03
2022-08-05T04:46:47.323Z,98081.13
2022-08-05T04:49:15.050Z,98077.78
2022-08-05T04:51:42.424Z,98082.53
2022-08-05T04:54:09.832Z,98087.41
2022-08-05T04:56:36.958Z,98083.41
2022-08-05T04:59:21.924Z,98080.34
2022-08-05T05:02:36.201Z,98080.53
2022-08-05T05:04:38.239Z,98082.19
2022-08-05T05:07:09.551Z,98091.81
2022-08-05T05:09:37.264Z,98093.09
2022-08-05T05:12:04.549Z,98096.75
2022-08-05T05:14:32.564Z,98087.59
2022-08-05T05:17:01.942Z,98095.03
2022-08-05T05:19:37.202Z,98088.84
2022-08-05T05:22:23.446Z,98093.22
2022-08-05T05:24:57.392Z,98078.22
2022-08-05T05:27:45.250Z,98082.88
2022-08-05T05:30:15.560Z,98085.06
2022-08-05T05:32:56.509Z,98091.25
2022-08-05T05:35:23.030Z,98083.50
2022-08-05T05:37:59.611Z,98093.19
2022-08-05T05:40:28.401Z,98091.75
2022-08-05T05:42:55.204Z,98090.47
2022-08-05T05:45:23.364Z,98092.50
2022-08-05T05:48:07.167Z,98087.69
2022-08-05T05:50:42.561Z,98085.13
2022-08-05T05:53:21.385Z,98089.56
2022-08-05T05:55:52.060Z,98095.84
2022-08-05T05:58:31.681Z,98092.50
2022-08-05T06:01:12.283Z,98096.47
2022-08-05T06:04:00.584Z,98093.59
2022-08-05T06:06:28.228Z,98095.06
2022-08-05T06:08:57.776Z,98100.53
2022-08-05T06:11:24.105Z,98089.81
2022-08-05T06:13:53.970Z,98090.38
2022-08-05T06:16:30.696Z,98085.41
2022-08-05T06:19:00.906Z,98090.41
2022-08-05T06:21:37.183Z,98080.03
2022-08-05T06:24:05.862Z,98092.34
2022-08-05T06:26:33.844Z,98095.66
2022-08-05T06:29:03.692Z,98109.00
2022-08-05T06:31:33.592Z,98105.94
2022-08-05T06:34:07.487Z,98105.25
2022-08-05T06:36:53.594Z,98109.69
2022-08-05T06:39:22.014Z,98127.00
2022-08-05T06:41:53.741Z,98135.78
2022-08-05T06:44:22.146Z,98137.25
2022-08-05T06:46:50.824Z,98131.53
2022-08-05T06:49:17.632Z,98148.97
2022-08-05T06:51:45.603Z,98160.66
2022-08-05T06:54:18.065Z,98151.63
2022-08-05T06:56:54.950Z,98140.25
2022-08-05T06:59:38.533Z,98159.03
2022-08-05T07:02:05.023Z,98169.56
2022-08-05T07:04:31.350Z,98153.16
2022-08-05T07:06:59.406Z,98160.09
2022-08-05T07:09:25.747Z,98167.34
2022-08-05T07:12:00.673Z,98146.94
2022-08-05T07:15:05.456Z,98151.72
2022-08-05T07:18:00.089Z,98153.25
2022-08-05T07:20:38.943Z,98167.59
2022-08-05T07:23:06.535Z,98162.75
2022-08-05T07:25:55.053Z,98169.88
2022-08-05T07:28:19.249Z,98167.16
2022-08-05T07:30:50.352Z,98168.31
2022-08-05T07:33:21.480Z,98161.19
2022-08-05T07:36:20.900Z,98164.34
2022-08-05T07:38:49.059Z,98165.28
2022-08-05T07:42:09.177Z,98155.41
2022-08-05T07:44:05.040Z,98152.66
2022-08-05T07:46:33.671Z,98159.75
2022-08-05T07:49:05.485Z,98167.41
2022-08-05T07:51:36.434Z,98168.19
2022-08-05T07:54:04.597Z,98169.63
2022-08-05T07:56:39.320Z,98169.50
2022-08-05T07:59:17.765Z,98181.63
2022-08-05T08:01:52.412Z,98187.97
2022-08-05T08:04:37.450Z,98196.78
2022-08-05T08:07:07.253Z,98204.50
2022-08-05T08:09:34.032Z,98207.16
2022-08-05T08:12:09.084Z,98226.47
2022-08-05T08:14:41.603Z,98223.06
2022-08-05T08:17:15.955Z,98226.63
2022-08-05T08:20:21.242Z,98239.28
2022-08-05T08:22:29.459Z,98223.78
2022-08-05T08:24:55.864Z,98231.56
2022-08-05T08:27:35.798Z,98234.72
2022-08-05T08:30:30.111Z,98246.31
2022-08-05T08:32:58.132Z,98231.88
2022-08-05T08:35:29.269Z,98248.81
2022-08-05T08:38:01.886Z,98250.66
2022-08-05T08:40:28.772Z,98248.78
2022-08-05T08:42:55.495Z,98251.06
2022-08-05T08:45:27.194Z,98251.59
2022-08-05T08:48:07.436Z,98248.38
2022-08-05T08:51:22.390Z,98247.66
2022-08-05T08:53:27.988Z,98262.47
2022-08-05T08:56:04.146Z,98264.69
2022-08-05T08:58:43.949Z,98273.38
2022-08-05T09:01:15.746Z,98265.78
2022-08-05T09:03:45.741Z,98260.53
2022-08-05T09:06:15.675Z,98266.56
2022-08-05T09:08:44.872Z,98256.28
2022-08-05T09:11:13.828Z,98265.56
2022-08-05T09:14:10.257Z,98265.25
2022-08-05T09:16:27.788Z,98260.38
2022-08-05T09:18:55.354Z,98265.63
2022-08-05T09:22:18.355Z,98266.88
2022-08-05T09:24:13.118Z,98262.44
2022-08-05T09:26:43.750Z,98269.88
2022-08-05T09:29:10.629Z,98267.06
2022-08-05T09:32:45.857Z,98259.59
2022-08-05T09:34:47.717Z,98260.63
2022-08-05T09:37:18.182Z,98259.91
2022-08-05T09:40:04.856Z,98257.38
2022-08-05T09:42:38.953Z,98255.56
2022-08-05T09:46:04.611Z,98261.50
2022-08-05T09:47:57.412Z,98257.00
2022-08-05T09:50:38.488Z,98265.34
2022-08-05T09:53:14.183Z,98250.81
2022-08-05T09:55:56.262Z,98256.56
2022-08-05T09:58:26.329Z,98260.13
2022-08-05T10:01:13.581Z,98256.56
2022-08-05T10:03:58.957Z,98254.91
2022-08-05T10:06:26.470Z,98264.22
2022-08-05T10:08:55.657Z,98260.81
2022-08-05T10:11:22.839Z,98260.16
2022-08-05T10:13:49.549Z,98261.59
2022-08-05T10:16:29.016Z,98255.59
2022-08-05T10:18:56.487Z,98255.41
2022-08-05T10:21:23.600Z,98256.59
2022-08-05T10:23:59.786Z,98247.06
2022-08-05T10:26:31.591Z,98247.53
2022-08-05T10:28:59.313Z,98249.22
2022-08-05T10:32:54.223Z,98251.56
2022-08-05T10:34:12.158Z,98240.13
2022-08-05T10:36:40.818Z,98246.34
2022-08-05T10:39:10.321Z,98242.72
2022-08-05T10:41:51.447Z,98244.84
2022-08-05T10:44:20.112Z,98246.31
2022-08-05T10:46:51.014Z,98241.31
2022-08-05T10:49:27.031Z,98238.47
2022-08-05T10:52:02.478Z,98237.28
2022-08-05T10:54:46.892Z,98248.25
2022-08-05T10:57:25.033Z,98241.06
2022-08-05T11:00:19.648Z,98229.63
2022-08-05T11:02:58.825Z,98229.06
2022-08-05T11:06:03.790Z,98238.63
2022-08-05T11:08:39.204Z,98227.97
2022-08-05T11:11:24.395Z,98234.00
2022-08-05T11:14:00.427Z,98237.78
2022-08-05T11:16:47.962Z,98235.94
2022-08-05T11:20:10.048Z,98241.47
2022-08-05T11:22:32.503Z,98244.63
2022-08-05T11:26:04.742Z,98247.19
2022-08-05T11:28:17.064Z,98251.31
2022-08-05T11:30:56.050Z,98250.00
2022-08-05T11:33:43.935Z,98243.81
2022-08-05T11:36:16.162Z,98260.00
2022-08-05T11:39:01.323Z,98251.16
2022-08-05T11:41:58.004Z,98263.19
2022-08-05T11:44:21.772Z,98257.66
2022-08-05T11:47:11.116Z,98252.13
2022-08-05T11:49:43.041Z,98261.53
2022-08-05T11:52:11.364Z,98259.94
2022-08-05T11:54:40.613Z,98258.28
2022-08-05T11:57:24.772Z,98258.06
2022-08-05T11:59:52.144Z,98257.72
2022-08-05T12:02:30.542Z,98262.13
2022-08-05T12:05:00.080Z,98263.19
2022-08-05T12:08:08.520Z,98259.72
2022-08-05T12:10:13.860Z,98258.66
2022-08-05T12:12:40.187Z,98254.97
2022-08-05T12:15:35.929Z,98253.25
2022-08-05T12:18:10.613Z,98254.84
2022-08-05T12:20:38.788Z,98256.00
2022-08-05T12:23:12.015Z,98250.25
2022-08-05T12:25:48.853Z,98252.22
2022-08-05T12:28:29.607Z,98242.59
2022-08-05T12:30:57.884Z,98244.88
2022-08-05T12:33:36.237Z,98237.16
2022-08-05T12:36:03.775Z,98233.69
2022-08-05T12:38:36.151Z,98233.53
2022-08-05T12:41:03.238Z,98230.19
2022-08-05T12:43:32.138Z,98224.63
2022-08-05T12:45:58.814Z,98224.31
2022-08-05T12:48:32.357Z,98217.53
2022-08-05T12:52:11.158Z,98218.22
2022-08-05T12:54:00.868Z,98218.66
2022-08-05T12:56:34.948Z,98209.56
2022-08-05T12:59:21.036Z,98212.88
2022-08-05T13:02:06.936Z,98211.38
2022-08-05T13:04:35.143Z,98216.00
2022-08-05T13:07:47.516Z,98217.25
2022-08-05T13:09:59.253Z,98218.28
2022-08-05T13:12:28.554Z,98203.03
2022-08-05T13:15:07.468Z,98198.25
2022-08-05T13:17:41.674Z,98193.53
2022-08-05T13:20:19.171Z,98191.56
2022-08-05T13:22:49.298Z,98193.31
2022-08-05T13:25:19.026Z,98194.88
2022-08-05T13:27:50.495Z,98198.53
2022-08-05T13:30:33.835Z,98195.84
2022-08-05T13:33:02.321Z,98188.44
2022-08-05T13:35:31.504Z,98195.94
2022-08-05T13:38:13.376Z,98191.72
2022-08-05T13:40:51.678Z,98183.91
2022-08-05T13:43:22.085Z,98186.50
2022-08-05T13:45:48.763Z,98174.47
2022-08-05T13:49:00.351Z,98180.88
2022-08-05T13:51:07.587Z,98181.16
2022-08-05T13:53:47.938Z,98199.06
2022-08-05T13:56:18.865Z,98188.59
2022-08-05T13:58:52.843Z,98195.28
2022-08-05T14:01:21.288Z,98195.06
2022-08-05T14:04:12.509Z,98191.31
2022-08-05T14:06:39.397Z,98186.31
2022-08-05T14:09:14.566Z,98176.91
2022-08-05T14:12:00.409Z,98180.38
2022-08-05T14:14:33.530Z,98186.25
2022-08-05T14:17:00.376Z,98183.50
2022-08-05T14:19:27.219Z,98175.78
2022-08-05T14:22:09.941Z,98172.53
2022-08-05T14:24:40.158Z,98175.22
2022-08-05T14:27:17.599Z,98177.28
2022-08-05T14:29:44.937Z,98173.84
2022-08-05T14:32:27.412Z,98175.91
2022-08-05T14:34:54.735Z,98177.53
2022-08-05T14:37:24.194Z,98181.88
2022-08-05T14:40:10.720Z,98185.56
2022-08-05T14:42:41.342Z,98181.19
2022-08-05T14:45:09.226Z,98170.34
2022-08-05T14:48:02.947Z,98169.31
2022-08-05T14:50:22.249Z,98171.38
2022-08-05T14:52:57.023Z,98168.19
2022-08-05T14:55:38.407Z,98160.81
2022-08-05T14:58:11.307Z,98173.19
2022-08-05T15:00:39.269Z,98165.81
2022-08-05T15:03:25.495Z,98164.38
2022-08-05T15:06:07.591Z,98163.97
2022-08-05T15:09:01.404Z,98166.63
2022-08-05T15:11:24.548Z,98170.47
2022-08-05T15:14:10.842Z,98162.03
2022-08-05T15:16:46.732Z,98165.97
2022-08-05T15:19:23.202Z,98164.66
2022-08-05T15:21:50.005Z,98165.41
2022-08-05T15:24:16.716Z,98168.34
2022-08-05T15:26:45.259Z,98172.25
2022-08-05T15:29:15.550Z,98175.09
2022-08-05T15:31:41.871Z,98172.66
2022-08-05T15:34:31.694Z,98182.41
2022-08-05T15:36:54.587Z,98181.66
2022-08-05T15:41:00.647Z,98182.66
2022-08-05T15:42:54.484Z,98181.50
2022-08-05T15:44:54.905Z,98180.22
2022-08-05T15:47:22.406Z,98187.06
2022-08-05T15:49:56.682Z,98178.72
2022-08-05T15:52:51.633Z,98186.69
2022-08-05T15:55:16.255Z,98183.94
2022-08-05T15:57:43.280Z,98180.44
2022-08-05T16:00:11.817Z,98182.50
2022-08-05T16:02:38.288Z,98185.13
2022-08-05T16:05:05.197Z,98180.06
2022-08-05T16:07:32.382Z,98185.41
2022-08-05T16:09:58.817Z,98171.22
2022-08-05T16:12:25.468Z,98170.47
2022-08-05T16:14:52.107Z,98180.31
2022-08-05T16:17:18.569Z,98180.63
2022-08-05T16:20:04.905Z,98175.75
2022-08-05T16:22:34.246Z,98172.72
2022-08-05T16:25:09.400Z,98186.44
2022-08-05T16:28:00.925Z,98189.47
2022-08-05T16:30:26.730Z,98184.69
2022-08-05T16:32:55.373Z,98201.47
2022-08-05T16:35:28.677Z,98198.16
2022-08-05T16:38:14.910Z,98201.06
2022-08-05T16:40:51.926Z,98208.72
2022-08-05T16:43:25.414Z,98208.03
2022-08-05T16:46:04.781Z,98199.47
2022-08-05T16:48:35.333Z,98209.75
2022-08-05T16:51:02.227Z,98209.25
2022-08-05T16:54:03.030Z,98206.81
2022-08-05T16:56:21.820Z,98216.16
2022-08-05T16:58:49.752Z,98215.22
2022-08-05T17:01:16.228Z,98214.47
2022-08-05T17:03:45.472Z,98211.28
2022-08-05T17:06:11.940Z,98213.22
2022-08-05T17:08:52.242Z,98213.69
2022-08-05T17:11:20.509Z,98225.69
2022-08-05T17:13:50.529Z,98225.50
2022-08-05T17:16:32.913Z,98234.34
2022-08-05T17:19:00.184Z,98233.16
2022-08-05T17:21:35.816Z,98237.94
2022-08-05T17:24:28.008Z,98236.22
2022-08-05T17:26:49.481Z,98244.78
2022-08-05T17:29:17.154Z,98251.69
2022-08-05T17:31:58.455Z,98269.91
2022-08-05T17:34:32.113Z,98273.53
2022-08-05T17:36:59.331Z,98278.03
2022-08-05T17:39:33.352Z,98282.06
2022-08-05T17:42:28.441Z,98285.63
2022-08-05T17:44:51.248Z,98294.00
2022-08-05T17:47:22.590Z,98302.06
2022-08-05T17:50:04.005Z,98305.41
2022-08-05T17:52:52.607Z,98299.66
2022-08-05T17:55:21.428Z,98317.50
2022-08-05T17:57:48.660Z,98313.97
2022-08-05T18:00:16.863Z,98322.34
2022-08-05T18:02:43.231Z,98332.44
2022-08-05T18:05:09.821Z,98330.19
2022-08-05T18:07:41.536Z,98338.31
2022-08-05T18:10:10.922Z,98339.13
2022-08-05T18:12:37.695Z,98349.94
2022-08-05T18:15:08.770Z,98349.75
2022-08-05T18:17:59.600Z,98355.69
2022-08-05T18:20:29.238Z,98360.91
2022-08-05T18:23:00.595Z,98378.88
2022-08-05T18:25:36.128Z,98384.16
2022-08-05T18:28:04.732Z,98399.41
2022-08-05T18:30:33.174Z,98413.69
2022-08-05T18:33:00.359Z,98427.38
2022-08-05T18:35:28.269Z,98434.66
2022-08-05T18:38:16.561Z,98443.06
2022-08-05T18:41:57.468Z,98452.22
2022-08-05T18:43:38.103Z,98456.63
2022-08-05T18:46:09.588Z,98471.31
2022-08-05T18:48:41.796Z,98467.06
2022-08-05T18:52:06.092Z,98479.44
2022-08-05T18:54:14.340Z,98487.53
2022-08-05T18:56:51.255Z,98493.50
2022-08-05T18:59:44.470Z,98510.16
2022-08-05T19:02:26.427Z,98521.38
2022-08-05T19:05:03.188Z,98524.25
2022-08-05T19:07:46.186Z,98528.50
2022-08-05T19:10:13.864Z,98526.38
2022-08-05T19:12:40.343Z,98542.59
2022-08-05T19:15:25.349Z,98547.31
2022-08-05T19:18:08.094Z,98554.97
2022-08-05T19:20:36.426Z,98558.06
2022-08-05T19:23:03.059Z,98567.44
2022-08-05T19:25:39.203Z,98574.28
2022-08-05T19:28:10.217Z,98578.06
2022-08-05T19:30:36.499Z,98585.38
2022-08-05T19:33:05.201Z,98592.03
2022-08-05T19:35:56.302Z,98590.91
2022-08-05T19:38:24.546Z,98601.72
2022-08-05T19:40:53.100Z,98613.47
2022-08-05T19:43:31.228Z,98606.19
2022-08-05T19:46:06.095Z,98608.47
2022-08-05T19:48:43.328Z,98618.50
2022-08-05T19:52:05.794Z,98628.53
2022-08-05T19:54:03.538Z,98629.84
2022-08-05T19:56:34.524Z,98633.59
2022-08-05T19:59:53.803Z,98631.06
2022-08-05T20:01:47.673Z,98643.69
2022-08-05T20:04:14.015Z,98635.31
2022-08-05T20:06:46.455Z,98629.31
2022-08-05T20:09:14.215Z,98640.41
2022-08-05T20:11:40.735Z,98634.41
2022-08-05T20:14:26.778Z,98642.41
2022-08-05T20:16:53.781Z,98648.63
2022-08-05T20:19:21.221Z,98655.13
2022-08-05T20:21:49.359Z,98655.19
2022-08-05T20:24:16.283Z,98663.91
2022-08-05T20:26:42.713Z,98667.75
2022-08-05T20:29:26.728Z,98677.22
2022-08-05T20:31:58.006Z,98687.44
2022-08-05T20:34:24.725Z,98693.28
2022-08-05T20:36:51.161Z,98691.00
2022-08-05T20:39:18.026Z,98697.38
2022-08-05T20:41:47.983Z,98702.81
2022-08-05T20:44:19.257Z,98703.09
2022-08-05T20:46:58.195Z,98701.66
2022-08-05T20:49:26.073Z,98706.72
2022-08-05T20:51:53.471Z,98716.22
2022-08-05T20:54:20.217Z,98720.34
2022-08-05T20:56:46.568Z,98728.56
2022-08-05T20:59:26.772Z,98725.22
2022-08-05T21:01:57.181Z,98729.63
2022-08-05T21:04:23.653Z,98732.13
2022-08-05T21:06:53.829Z,98733.06
2022-08-05T21:09:20.176Z,98736.63
2022-08-05T21:12:08.890Z,98734.94
2022-08-05T21:14:35.053Z,98741.59
2022-08-05T21:17:03.128Z,98747.88
2022-08-05T21:19:47.629Z,98742.25
2022-08-05T21:22:23.182Z,98758.13
2022-08-05T21:24:51.803Z,98755.56
2022-08-05T21:27:18.393Z,98758.97
2022-08-05T21:29:48.442Z,98774.00
2022-08-05T21:32:20.055Z,98780.91
2022-08-05T21:34:52.478Z,98793.03
2022-08-05T21:37:33.182Z,98784.50
2022-08-05T21:40:02.898Z,98787.88
2022-08-05T21:42:44.491Z,98807.63
2022-08-05T21:45:11.408Z,98824.28
2022-08-05T21:47:56.572Z,98821.06
2022-08-05T21:50:25.080Z,98820.97
2022-08-05T21:52:51.488Z,98816.72
2022-08-05T21:55:42.891Z,98828.56
2022-08-05T21:58:05.821Z,98828.66
2022-08-05T22:00:32.445Z,98837.75
2022-08-05T22:03:00.072Z,98843.78
2022-08-05T22:05:27.379Z,98855.31
2022-08-05T22:07:58.824Z,98849.94
2022-08-05T22:10:28.374Z,98865.81
2022-08-05T22:12:57.133Z,98861.38
2022-08-05T22:16:01.748Z,98848.19
2022-08-05T22:18:11.051Z,98829.09
2022-08-05T22:20:39.078Z,98815.56
2022-08-05T22:23:25.093Z,98808.97
2022-08-05T22:26:30.124Z,98808.00
2022-08-05T22:28:56.477Z,98807.28
2022-08-05T22:31:22.860Z,98820.94
2022-08-05T22:33:57.195Z,98824.25
2022-08-05T22:36:27.177Z,98823.97
2022-08-05T22:38:53.692Z,98825.59
2022-08-05T22:42:04.471Z,98827.88
2022-08-05T22:44:08.723Z,98831.69
2022-08-05T22:46:40.131Z,98836.91
2022-08-05T22:49:12.166Z,98857.53
2022-08-05T22:52:05.806Z,98894.75
2022-08-05T22:54:35.475Z,98907.22
2022-08-05T22:57:02.849Z,98914.88
2022-08-05T22:59:44.157Z,98959.78
2022-08-05T23:02:16.860Z,98996.66
2022-08-05T23:04:43.890Z,99006.97
2022-08-05T23:07:18.829Z,98995.19
2022-08-05T23:09:57.826Z,98991.97
2022-08-05T23:12:32.987Z,98975.47
2022-08-05T23:14:59.770Z,98959.28
2022-08-05T23:17:34.143Z,98952.28
2022-08-05T23:20:05.253Z,98944.53
2022-08-05T23:22:31.850Z,98946.72
2022-08-05T23:24:59.737Z,98937.09
2022-08-05T23:27:31.343Z,98928.25
2022-08-05T23:30:10.655Z,98921.59
2022-08-05T23:32:37.735Z,98952.03
2022-08-05T23:35:11.642Z,98957.88
2022-08-05T23:37:38.029Z,98949.13
2022-08-05T23:40:07.883Z,98946.50
2022-08-05T23:42:37.840Z,98931.81
2022-08-05T23:45:04.727Z,98921.94
2022-08-05T23:47:48.004Z,98916.44
2022-08-05T23:50:15.024Z,98900.97
2022-08-05T23:52:49.896Z,98918.53
2022-08-05T23:55:17.681Z,98935.72
2022-08-05T23:57:44.010Z,98954.44
